Time;durP1;ratioP1;P1;durP2;ratioP2;P2;SDS_P1;SDS_P2;PMS_P1;PMS_P2;Temp;Humidity;BMP_temperature;BMP_pressure;BME280_temperature;BME280_humidity;BME280_pressure;Samples;Min_cycle;Max_cycle;Signal;HPM_P1;HPM_P2
2023/11/07 00:01:37;;;;;;;38.78;22.70;;;;;;;3.37;100.00;95740.91;5085633;28;20020;-63
2023/11/07 00:04:02;;;;;;;33.47;22.08;;;;;;;3.32;100.00;95748.19;5089119;28;20714;-63
2023/11/07 00:06:28;;;;;;;32.67;20.98;;;;;;;3.33;100.00;95750.69;5089365;28;20031;-63
2023/11/07 00:08:53;;;;;;;28.58;17.70;;;;;;;3.33;100.00;95744.66;5088523;28;20028;-63
2023/11/07 00:11:19;;;;;;;22.52;13.23;;;;;;;3.34;100.00;95743.72;5079371;28;20048;-63
2023/11/07 00:13:45;;;;;;;27.02;18.33;;;;;;;3.18;100.00;95744.66;5090967;28;20020;-63
2023/11/07 00:16:11;;;;;;;28.60;17.30;;;;;;;3.18;100.00;95743.81;5083453;28;20028;-63
2023/11/07 00:18:36;;;;;;;32.30;21.50;;;;;;;3.20;100.00;95741.94;5089220;28;20062;-63
2023/11/07 00:21:02;;;;;;;28.83;18.10;;;;;;;3.20;100.00;95747.16;5083488;28;20024;-63
2023/11/07 00:23:27;;;;;;;26.92;17.50;;;;;;;3.19;100.00;95742.88;5078997;28;20064;-65
2023/11/07 00:25:53;;;;;;;28.77;17.98;;;;;;;3.22;100.00;95746.16;5083560;28;20025;-63
2023/11/07 00:28:19;;;;;;;27.77;17.38;;;;;;;3.16;100.00;95746.53;5084014;28;20024;-63
2023/11/07 00:30:45;;;;;;;25.65;17.48;;;;;;;3.13;100.00;95755.34;5077880;28;20095;-63
2023/11/07 00:33:11;;;;;;;26.05;16.23;;;;;;;3.12;100.00;95758.88;5074931;28;20016;-63
2023/11/07 00:35:36;;;;;;;48.13;22.60;;;;;;;3.09;100.00;95760.81;5084477;28;20131;-63
2023/11/07 00:38:04;;;;;;;49.17;25.45;;;;;;;3.11;100.00;95751.19;5084320;28;20020;-63
2023/11/07 00:40:30;;;;;;;43.80;24.23;;;;;;;3.07;100.00;95758.34;5082625;28;20052;-63
2023/11/07 00:42:55;;;;;;;63.33;31.77;;;;;;;2.96;100.00;95763.34;5103570;28;20073;-63
2023/11/07 00:45:21;;;;;;;50.22;30.50;;;;;;;3.00;100.00;95764.84;5083623;28;20051;-63
2023/11/07 00:47:46;;;;;;;44.05;29.60;;;;;;;2.98;100.00;95756.28;5080838;28;20601;-63
2023/11/07 00:50:12;;;;;;;56.80;35.17;;;;;;;3.01;100.00;95761.31;5083124;28;20028;-63
2023/11/07 00:52:40;;;;;;;45.97;25.83;;;;;;;3.00;100.00;95764.84;5082166;28;20107;-63
2023/11/07 00:55:07;;;;;;;40.65;23.70;;;;;;;2.99;100.00;95764.00;5081937;28;20023;-63
2023/11/07 00:57:32;;;;;;;37.13;23.88;;;;;;;2.98;100.00;95766.69;5081249;28;20028;-63
2023/11/07 00:59:58;;;;;;;34.75;22.08;;;;;;;2.99;100.00;95774.41;5084751;28;20909;-63
2023/11/07 01:02:23;;;;;;;30.75;19.02;;;;;;;3.00;100.00;95778.69;5088247;28;20030;-63
2023/11/07 01:04:49;;;;;;;31.27;18.85;;;;;;;2.97;100.00;95775.41;5077434;28;20027;-63
2023/11/07 01:07:14;;;;;;;28.92;17.40;;;;;;;2.90;100.00;95772.38;5078850;28;20073;-63
2023/11/07 01:09:40;;;;;;;29.27;17.83;;;;;;;2.90;100.00;95779.31;5084235;28;20040;-63
2023/11/07 01:12:06;;;;;;;33.40;18.33;;;;;;;2.90;100.00;95784.53;5087213;28;20016;-63
2023/11/07 01:14:32;;;;;;;34.70;19.95;;;;;;;2.85;100.00;95785.66;5087423;28;20103;-63
2023/11/07 01:16:58;;;;;;;28.90;21.80;;;;;;;2.87;100.00;95790.75;5088172;28;20035;-63
2023/11/07 01:19:23;;;;;;;28.77;20.67;;;;;;;2.92;100.00;95780.91;5079689;28;20492;-63
2023/11/07 01:21:48;;;;;;;28.98;22.77;;;;;;;2.90;100.00;95785.38;5083268;28;20052;-63
2023/11/07 01:24:14;;;;;;;34.28;22.38;;;;;;;2.83;100.00;95790.09;5084284;28;20161;-63
2023/11/07 01:26:39;;;;;;;32.47;21.48;;;;;;;2.75;100.00;95792.31;5083780;28;20052;-63
2023/11/07 01:29:04;;;;;;;39.35;20.67;;;;;;;2.77;100.00;95785.28;5085036;28;20028;-64
2023/11/07 01:31:30;;;;;;;31.77;20.30;;;;;;;2.77;100.00;95790.47;5077760;28;20055;-63
2023/11/07 01:33:56;;;;;;;28.70;20.08;;;;;;;2.78;100.00;95792.16;5084667;28;20447;-63
2023/11/07 01:36:21;;;;;;;32.53;22.55;;;;;;;2.79;100.00;95787.78;5083869;28;20404;-63
2023/11/07 01:38:47;;;;;;;34.70;23.33;;;;;;;2.77;100.00;95790.47;5085209;28;20024;-63
2023/11/07 01:41:13;;;;;;;38.33;23.15;;;;;;;2.80;100.00;95799.84;5079039;28;20686;-63
2023/11/07 01:43:39;;;;;;;26.02;18.20;;;;;;;2.71;100.00;95793.44;5082569;28;20029;-63
2023/11/07 01:46:05;;;;;;;16.40;14.23;;;;;;;2.72;100.00;95795.09;5084087;28;20024;-63
2023/11/07 01:48:31;;;;;;;26.10;20.67;;;;;;;2.72;100.00;95792.50;5086101;28;20057;-63
2023/11/07 01:50:57;;;;;;;18.27;14.50;;;;;;;2.74;100.00;95782.03;5090882;28;20476;-63
2023/11/07 01:53:24;;;;;;;22.02;16.27;;;;;;;2.70;100.00;95787.41;5085478;28;20055;-63
2023/11/07 01:55:49;;;;;;;19.75;15.23;;;;;;;2.65;100.00;95791.19;5088412;28;20035;-64
2023/11/07 01:58:15;;;;;;;18.67;14.60;;;;;;;2.65;100.00;95781.66;5095133;28;20039;-63
2023/11/07 02:00:43;;;;;;;17.08;15.38;;;;;;;2.64;100.00;95784.31;5083884;28;20056;-63
2023/11/07 02:03:09;;;;;;;18.80;15.20;;;;;;;2.60;100.00;95788.03;5087117;28;20032;-63
2023/11/07 02:05:34;;;;;;;18.77;15.55;;;;;;;2.56;100.00;95788.22;5088394;28;20040;-63
2023/11/07 02:08:00;;;;;;;16.45;14.60;;;;;;;2.66;100.00;95785.06;5086598;28;20028;-64
2023/11/07 02:10:25;;;;;;;19.33;12.35;;;;;;;2.66;100.00;95785.94;5085835;28;20079;-63
2023/11/07 02:12:51;;;;;;;13.40;11.93;;;;;;;2.75;100.00;95787.09;5082505;28;20468;-63
2023/11/07 02:15:23;;;;;;;17.83;11.68;;;;;;;2.78;100.00;95802.56;5079826;28;20143;-63
2023/11/07 02:17:49;;;;;;;14.07;12.27;;;;;;;2.85;100.00;95806.44;5086433;28;20036;-63
2023/11/07 02:20:16;;;;;;;15.88;12.98;;;;;;;2.90;100.00;95795.78;5087002;28;20031;-63
2023/11/07 02:22:49;;;;;;;12.45;11.15;;;;;;;2.91;100.00;95799.19;5095448;28;20039;-63
2023/11/07 02:25:18;;;;;;;14.05;12.65;;;;;;;2.95;100.00;95798.94;5083484;28;20020;-63
2023/11/07 02:27:44;;;;;;;17.25;13.57;;;;;;;3.07;100.00;95805.16;5086085;28;20023;-63
2023/11/07 02:30:12;;;;;;;13.00;11.50;;;;;;;3.11;100.00;95806.66;5082971;28;20515;-63
2023/11/07 02:32:41;;;;;;;16.33;13.40;;;;;;;3.19;100.00;95807.94;5081466;28;20020;-63
2023/11/07 02:35:08;;;;;;;14.15;12.63;;;;;;;3.25;100.00;95805.78;5085999;28;20111;-63
2023/11/07 02:37:34;;;;;;;13.07;11.18;;;;;;;3.29;100.00;95791.66;5070330;28;20043;-63
2023/11/07 02:40:00;;;;;;;14.07;12.73;;;;;;;3.36;100.00;95797.31;5083309;28;20051;-64
2023/11/07 02:42:29;;;;;;;13.60;12.23;;;;;;;3.38;100.00;95800.66;5082726;28;20012;-64
2023/11/07 02:44:55;;;;;;;15.95;14.25;;;;;;;3.41;100.00;95800.47;5084004;28;20052;-63
2023/11/07 02:47:21;;;;;;;16.38;14.15;;;;;;;3.39;100.00;95825.75;5089963;28;20016;-63
2023/11/07 02:49:46;;;;;;;15.88;14.35;;;;;;;3.37;100.00;95826.81;5086834;28;20020;-63
2023/11/07 02:52:12;;;;;;;18.88;16.98;;;;;;;3.37;100.00;95819.81;5083014;28;20032;-63
2023/11/07 02:54:37;;;;;;;26.92;24.05;;;;;;;3.40;100.00;95818.81;5080270;28;20028;-63
2023/11/07 02:57:03;;;;;;;27.13;24.27;;;;;;;3.37;100.00;95814.63;5081944;28;20024;-64
2023/11/07 02:59:28;;;;;;;22.42;20.00;;;;;;;3.26;100.00;95812.69;5090218;28;20020;-63
2023/11/07 03:01:53;;;;;;;19.85;17.85;;;;;;;3.25;100.00;95805.78;5082470;28;20519;-63
2023/11/07 03:04:19;;;;;;;25.52;23.10;;;;;;;3.24;100.00;95813.72;5085301;28;20500;-63
2023/11/07 03:06:44;;;;;;;33.50;30.67;;;;;;;3.26;100.00;95806.66;5087885;28;20020;-63
2023/11/07 03:09:10;;;;;;;24.13;21.92;;;;;;;3.27;100.00;95803.13;5086194;28;20106;-63
2023/11/07 03:11:36;;;;;;;25.95;23.55;;;;;;;3.26;100.00;95798.84;5089251;28;20520;-63
2023/11/07 03:14:01;;;;;;;26.73;24.33;;;;;;;3.27;100.00;95795.31;5081280;28;20043;-63
2023/11/07 03:16:27;;;;;;;28.33;25.42;;;;;;;3.28;100.00;95803.00;5080360;28;20024;-63
2023/11/07 03:18:52;;;;;;;28.60;25.65;;;;;;;3.26;100.00;95806.66;5085974;28;20532;-64
2023/11/07 03:21:18;;;;;;;28.25;25.75;;;;;;;3.28;100.00;95802.19;5093548;28;20449;-64
2023/11/07 03:23:44;;;;;;;30.95;28.05;;;;;;;3.34;100.00;95807.00;5093251;28;20016;-64
2023/11/07 03:26:10;;;;;;;32.60;29.27;;;;;;;3.60;100.00;95808.94;5079596;28;20081;-63
2023/11/07 03:28:35;;;;;;;34.55;31.05;;;;;;;3.51;100.00;95803.34;5093793;28;20015;-63
2023/11/07 03:31:01;;;;;;;35.72;30.50;;;;;;;3.52;100.00;95807.63;5082098;28;20008;-63
2023/11/07 03:33:26;;;;;;;34.40;31.05;;;;;;;3.52;100.00;95806.81;5087094;28;20028;-63
2023/11/07 03:35:52;;;;;;;34.55;31.23;;;;;;;3.54;100.00;95805.78;5078496;28;20028;-63
2023/11/07 03:38:17;;;;;;;47.30;43.40;;;;;;;3.60;100.00;95814.97;5085786;28;20018;-63
2023/11/07 03:40:42;;;;;;;47.33;43.25;;;;;;;3.62;100.00;95801.84;5081984;28;20042;-63
2023/11/07 03:43:08;;;;;;;36.17;32.55;;;;;;;3.67;100.00;95818.00;5086359;28;20027;-63
2023/11/07 03:45:33;;;;;;;33.80;30.55;;;;;;;3.65;100.00;95810.31;5083983;28;20104;-64
2023/11/07 03:47:59;;;;;;;32.38;29.17;;;;;;;3.70;100.00;95810.84;5071642;28;20066;-63
2023/11/07 03:50:25;;;;;;;32.55;29.38;;;;;;;3.73;100.00;95810.66;5090283;28;20496;-64
2023/11/07 03:52:51;;;;;;;41.97;38.47;;;;;;;3.77;100.00;95807.84;5091606;28;20077;-63
2023/11/07 03:55:16;;;;;;;31.02;28.08;;;;;;;3.78;100.00;95802.56;5081733;28;20762;-63
2023/11/07 03:57:42;;;;;;;26.02;23.52;;;;;;;3.78;100.00;95801.72;5083890;28;20539;-63
2023/11/07 04:00:10;;;;;;;37.58;33.78;;;;;;;3.78;100.00;95807.78;5093337;28;20051;-63
2023/11/07 04:02:37;;;;;;;30.85;27.83;;;;;;;3.76;100.00;95814.00;5087535;28;20029;-63
2023/11/07 04:05:03;;;;;;;28.65;25.85;;;;;;;3.76;100.00;95821.81;5081060;28;20021;-63
2023/11/07 04:07:29;;;;;;;37.47;34.45;;;;;;;3.80;100.00;95818.94;5093146;28;20152;-63
2023/11/07 04:09:55;;;;;;;36.50;33.50;;;;;;;3.84;100.00;95822.16;5085429;28;20078;-63
2023/11/07 04:12:21;;;;;;;35.95;32.88;;;;;;;3.79;100.00;95821.63;5088937;28;20084;-64
2023/11/07 04:14:47;;;;;;;21.42;19.33;;;;;;;3.76;100.00;95816.59;5081668;28;20056;-64
2023/11/07 04:17:12;;;;;;;17.55;15.85;;;;;;;3.80;100.00;95818.94;5080408;28;20059;-64
2023/11/07 04:19:38;;;;;;;15.43;13.93;;;;;;;3.86;100.00;95815.94;5079667;28;20507;-64
2023/11/07 04:22:04;;;;;;;12.95;11.85;;;;;;;3.95;100.00;95824.06;5086860;28;20051;-64
2023/11/07 04:24:30;;;;;;;14.65;13.25;;;;;;;4.01;100.00;95813.28;5085569;28;20024;-63
2023/11/07 04:26:57;;;;;;;18.52;16.63;;;;;;;4.03;100.00;95811.41;5078610;28;20599;-64
2023/11/07 04:29:23;;;;;;;23.10;20.90;;;;;;;4.04;100.00;95810.47;5092955;28;20103;-64
2023/11/07 04:31:49;;;;;;;22.90;20.48;;;;;;;4.07;100.00;95817.25;5086548;28;20067;-63
2023/11/07 04:34:15;;;;;;;23.25;20.85;;;;;;;4.07;100.00;95817.25;5088766;28;20370;-64
2023/11/07 04:36:40;;;;;;;23.02;20.92;;;;;;;4.07;100.00;95822.47;5081731;28;20043;-64
2023/11/07 04:39:06;;;;;;;19.75;17.85;;;;;;;4.09;100.00;95824.03;5088554;28;20028;-64
2023/11/07 04:41:33;;;;;;;18.48;16.65;;;;;;;4.16;100.00;95822.69;5082494;28;20059;-64
2023/11/07 04:44:00;;;;;;;19.65;17.73;;;;;;;4.20;100.00;95823.34;5088148;28;20036;-64
2023/11/07 04:46:26;;;;;;;23.67;18.38;;;;;;;4.20;100.00;95828.56;5090454;28;20508;-63
2023/11/07 04:48:52;;;;;;;20.60;18.50;;;;;;;4.21;100.00;95827.63;5079980;28;20028;-64
2023/11/07 04:51:20;;;;;;;20.52;18.55;;;;;;;4.23;100.00;95828.34;5077939;28;20028;-64
2023/11/07 04:53:49;;;;;;;20.35;18.30;;;;;;;4.28;100.00;95815.84;5082304;28;20028;-64
2023/11/07 04:56:15;;;;;;;21.85;16.33;;;;;;;4.28;100.00;95820.25;5082289;28;20457;-64
2023/11/07 04:58:40;;;;;;;19.13;17.13;;;;;;;4.25;100.00;95831.69;5077845;28;20122;-64
2023/11/07 05:01:07;;;;;;;19.08;17.38;;;;;;;4.29;100.00;95827.13;5084576;28;20030;-64
2023/11/07 05:03:33;;;;;;;18.30;16.50;;;;;;;4.28;100.00;95825.47;5085871;28;20032;-64
2023/11/07 05:05:59;;;;;;;18.15;16.27;;;;;;;4.24;100.00;95830.03;5076530;28;20020;-64
2023/11/07 05:08:24;;;;;;;16.35;14.88;;;;;;;4.24;100.00;95821.38;5086682;28;20086;-64
2023/11/07 05:10:50;;;;;;;15.40;14.10;;;;;;;4.28;100.00;95826.28;5084408;28;20100;-64
2023/11/07 05:13:15;;;;;;;15.38;14.07;;;;;;;4.30;100.00;95813.16;5088756;28;20028;-64
2023/11/07 05:15:42;;;;;;;15.30;14.00;;;;;;;4.27;100.00;95813.38;5086774;28;20338;-64
2023/11/07 05:18:10;;;;;;;15.23;13.82;;;;;;;4.30;100.00;95811.38;5083834;28;20036;-64
2023/11/07 05:20:36;;;;;;;14.18;12.38;;;;;;;4.28;100.00;95799.41;5086096;28;20035;-64
2023/11/07 05:23:02;;;;;;;13.35;11.63;;;;;;;4.29;100.00;95801.06;5086932;28;20175;-64
2023/11/07 05:25:27;;;;;;;12.82;11.52;;;;;;;4.29;100.00;95803.66;5081952;28;20093;-64
2023/11/07 05:27:52;;;;;;;14.02;12.73;;;;;;;4.27;100.00;95798.53;5084759;28;20146;-64
2023/11/07 05:30:18;;;;;;;12.95;11.75;;;;;;;4.28;100.00;95799.41;5091994;28;20027;-64
2023/11/07 05:32:46;;;;;;;13.77;12.63;;;;;;;4.27;100.00;95797.72;5088021;28;20470;-64
2023/11/07 05:35:12;;;;;;;15.45;12.85;;;;;;;4.25;100.00;95803.03;5089626;28;20035;-63
2023/11/07 05:37:39;;;;;;;13.35;12.15;;;;;;;4.22;100.00;95795.41;5078398;28;20076;-64
2023/11/07 05:40:05;;;;;;;13.75;12.38;;;;;;;4.30;100.00;95798.34;5084787;28;20096;-64
2023/11/07 05:42:31;;;;;;;13.82;12.43;;;;;;;4.20;100.00;95802.50;5074879;28;20047;-64
2023/11/07 05:44:57;;;;;;;27.38;20.55;;;;;;;4.42;100.00;95816.72;5076875;28;20021;-63
2023/11/07 05:47:22;;;;;;;18.13;16.20;;;;;;;4.34;100.00;95814.63;5086262;28;20027;-64
2023/11/07 05:49:50;;;;;;;23.75;21.30;;;;;;;4.27;100.00;95808.97;5077558;28;20094;-63
2023/11/07 05:52:16;;;;;;;23.67;21.15;;;;;;;4.21;100.00;95825.00;5085080;28;20047;-64
2023/11/07 05:54:42;;;;;;;23.30;20.83;;;;;;;4.20;100.00;95810.31;5083324;28;20039;-64
2023/11/07 05:57:08;;;;;;;21.90;19.73;;;;;;;4.18;100.00;95809.59;5086532;28;20531;-64
2023/11/07 05:59:34;;;;;;;22.13;19.73;;;;;;;4.12;100.00;95815.19;5071355;28;20063;-64
2023/11/07 06:01:59;;;;;;;20.77;18.67;;;;;;;4.10;100.00;95819.69;5089070;28;20012;-63
2023/11/07 06:04:33;;;;;;;19.98;18.05;;;;;;;4.11;100.00;95823.94;5086905;28;20020;-64
2023/11/07 06:06:59;;;;;;;22.55;17.90;;;;;;;4.12;100.00;95823.03;5081869;28;20024;-64
2023/11/07 06:09:26;;;;;;;19.60;16.63;;;;;;;4.15;100.00;95825.41;5087293;28;20066;-64
2023/11/07 06:11:52;;;;;;;22.42;20.20;;;;;;;4.19;100.00;95828.66;5089812;28;20481;-64
2023/11/07 06:14:17;;;;;;;21.73;19.75;;;;;;;4.20;100.00;95825.09;5081816;28;20036;-64
2023/11/07 06:16:43;;;;;;;18.42;14.90;;;;;;;4.21;100.00;95825.00;5067447;28;20024;-64
2023/11/07 06:19:11;;;;;;;14.80;13.43;;;;;;;4.18;100.00;95820.00;5082087;28;20033;-63
2023/11/07 06:21:37;;;;;;;16.10;14.48;;;;;;;4.16;100.00;95819.28;5080871;28;20020;-64
2023/11/07 06:24:03;;;;;;;15.77;13.57;;;;;;;4.16;100.00;95822.69;5084133;28;20375;-64
2023/11/07 06:26:29;;;;;;;16.73;14.70;;;;;;;4.12;100.00;95815.19;5079749;28;20040;-64
2023/11/07 06:28:54;;;;;;;26.27;19.77;;;;;;;4.09;100.00;95815.38;5084691;28;20670;-64
2023/11/07 06:31:24;;;;;;;38.60;34.03;;;;;;;4.09;100.00;95823.19;5068175;28;20034;-65
2023/11/07 06:33:50;;;;;;;29.45;26.48;;;;;;;4.07;100.00;95819.84;5080426;28;20092;-64
2023/11/07 06:36:15;;;;;;;22.77;20.27;;;;;;;4.05;100.00;95830.38;5082061;28;20501;-64
2023/11/07 06:38:41;;;;;;;17.80;15.68;;;;;;;4.04;100.00;95828.72;5090436;28;20024;-64
2023/11/07 06:41:07;;;;;;;16.05;14.55;;;;;;;4.01;100.00;95837.56;5080893;28;20033;-65
2023/11/07 06:43:36;;;;;;;16.90;15.10;;;;;;;3.96;100.00;95847.44;5085166;28;20028;-65
2023/11/07 06:46:02;;;;;;;14.95;13.55;;;;;;;3.91;100.00;95843.44;5084646;28;20035;-67
2023/11/07 06:48:28;;;;;;;16.73;15.18;;;;;;;3.90;100.00;95846.97;5090351;28;20036;-65
2023/11/07 06:50:54;;;;;;;16.63;14.95;;;;;;;3.89;100.00;95853.97;5086666;28;20024;-65
2023/11/07 06:53:20;;;;;;;16.13;14.55;;;;;;;3.87;100.00;95854.06;5093477;28;20025;-65
2023/11/07 06:55:46;;;;;;;18.60;15.27;;;;;;;3.92;100.00;95855.53;5080993;28;20603;-64
2023/11/07 06:58:11;;;;;;;16.67;15.02;;;;;;;3.95;100.00;95861.41;5082257;28;20181;-65
2023/11/07 07:00:38;;;;;;;21.90;16.17;;;;;;;3.98;100.00;95871.63;5081735;28;20071;-64
2023/11/07 07:03:03;;;;;;;30.10;27.25;;;;;;;4.00;100.00;95872.34;5089496;28;20028;-65
2023/11/07 07:05:29;;;;;;;21.10;18.88;;;;;;;4.05;100.00;95871.22;5083174;28;20028;-64
2023/11/07 07:07:54;;;;;;;21.90;19.77;;;;;;;4.08;100.00;95869.28;5083920;28;20170;-64
2023/11/07 07:10:20;;;;;;;20.45;18.10;;;;;;;4.14;100.00;95875.88;5088296;28;20176;-63
2023/11/07 07:12:45;;;;;;;26.60;24.08;;;;;;;4.17;100.00;95883.50;5084547;28;20039;-63
2023/11/07 07:15:11;;;;;;;17.73;15.98;;;;;;;4.10;100.00;95884.81;5068390;28;20039;-64
2023/11/07 07:17:36;;;;;;;17.20;15.40;;;;;;;4.00;100.00;95885.38;5087570;28;20114;-64
2023/11/07 07:20:11;;;;;;;17.33;15.60;;;;;;;4.02;100.00;95895.72;5088939;28;20020;-63
2023/11/07 07:22:39;;;;;;;17.33;15.23;;;;;;;4.08;100.00;95891.88;5086713;28;20037;-63
2023/11/07 07:25:05;;;;;;;22.75;17.95;;;;;;;4.20;100.00;95895.47;5087431;28;20389;-64
2023/11/07 07:27:33;;;;;;;21.30;19.00;;;;;;;4.21;100.00;95900.59;5088302;28;20112;-63
2023/11/07 07:29:59;;;;;;;20.77;18.52;;;;;;;4.17;100.00;95896.53;5078175;28;20028;-63
2023/11/07 07:32:26;;;;;;;27.02;24.23;;;;;;;4.15;100.00;95906.22;5088879;28;20067;-63
2023/11/07 07:34:55;;;;;;;26.40;23.60;;;;;;;4.14;100.00;95904.53;5088193;28;20084;-63
2023/11/07 07:37:20;;;;;;;26.10;23.40;;;;;;;4.12;100.00;95914.22;5091441;28;20028;-63
2023/11/07 07:39:46;;;;;;;27.88;25.10;;;;;;;4.09;100.00;95915.25;5084417;28;20032;-63
2023/11/07 07:42:12;;;;;;;31.52;28.60;;;;;;;4.08;100.00;95912.72;5081628;28;20038;-63
2023/11/07 07:44:38;;;;;;;37.28;34.05;;;;;;;4.14;100.00;95920.16;5078189;28;20601;-63
2023/11/07 07:47:04;;;;;;;33.47;30.10;;;;;;;4.17;100.00;95919.97;5081651;28;20024;-63
2023/11/07 07:49:32;;;;;;;32.15;28.95;;;;;;;4.22;100.00;95925.72;5096055;28;20388;-63
2023/11/07 07:51:59;;;;;;;32.75;29.60;;;;;;;4.27;100.00;95928.06;5080804;28;20016;-63
2023/11/07 07:54:25;;;;;;;34.17;31.15;;;;;;;4.25;100.00;95925.53;5089743;28;20488;-63
2023/11/07 07:56:54;;;;;;;31.52;28.38;;;;;;;4.30;100.00;95927.84;5088127;28;20099;-64
2023/11/07 07:59:28;;;;;;;29.92;27.23;;;;;;;4.34;100.00;95928.50;5089888;28;20388;-63
2023/11/07 08:01:57;;;;;;;33.13;29.95;;;;;;;4.33;100.00;95932.88;5084790;28;20032;-63
2023/11/07 08:04:26;;;;;;;39.65;36.08;;;;;;;4.38;100.00;95922.97;5078683;28;20044;-63
2023/11/07 08:06:53;;;;;;;45.70;41.38;;;;;;;4.41;100.00;95927.16;5088143;28;20467;-63
2023/11/07 08:09:18;;;;;;;33.75;30.67;;;;;;;4.45;100.00;95933.84;5091774;28;20399;-63
2023/11/07 08:11:47;;;;;;;27.35;25.05;;;;;;;4.51;100.00;95925.63;5085590;28;20094;-64
2023/11/07 08:14:14;;;;;;;200.82;49.58;;;;;;;4.57;100.00;95927.00;5082258;28;20410;-64
2023/11/07 08:16:41;;;;;;;36.90;32.97;;;;;;;4.65;100.00;95929.97;5085127;28;20058;-64
2023/11/07 08:19:09;;;;;;;33.60;30.27;;;;;;;4.69;100.00;95927.97;5084898;28;20111;-64
2023/11/07 08:21:41;;;;;;;23.70;21.27;;;;;;;4.78;100.00;95930.00;5085503;28;20028;-63
2023/11/07 08:24:08;;;;;;;21.83;19.63;;;;;;;4.88;100.00;95940.69;5089114;28;20401;-63
2023/11/07 08:26:36;;;;;;;25.80;23.15;;;;;;;4.98;100.00;95940.91;5089701;28;20519;-63
2023/11/07 08:29:06;;;;;;;30.77;21.20;;;;;;;5.01;100.00;95936.31;5078145;28;20027;-64
2023/11/07 08:31:35;;;;;;;22.13;19.90;;;;;;;5.26;100.00;95945.09;5087825;28;20080;-64
2023/11/07 08:34:04;;;;;;;30.67;27.67;;;;;;;5.48;100.00;95945.47;5079677;28;20019;-63
2023/11/07 08:36:34;;;;;;;26.00;18.08;;;;;;;5.43;100.00;95951.84;5082925;28;20020;-63
2023/11/07 08:38:59;;;;;;;15.43;13.82;;;;;;;5.67;100.00;95945.03;5079489;28;20094;-64
2023/11/07 08:41:25;;;;;;;15.80;14.40;;;;;;;5.67;100.00;95951.09;5097419;28;20111;-63
2023/11/07 08:43:51;;;;;;;16.85;13.32;;;;;;;5.78;100.00;95952.97;5085019;28;20024;-63
2023/11/07 08:46:19;;;;;;;16.20;14.60;;;;;;;5.87;100.00;95954.13;5083201;28;20025;-63
2023/11/07 08:48:45;;;;;;;12.80;11.60;;;;;;;5.93;100.00;95961.53;5085461;28;20020;-63
2023/11/07 08:51:12;;;;;;;9.88;7.85;;;;;;;5.96;100.00;95961.31;5077422;28;20024;-64
2023/11/07 08:53:37;;;;;;;7.55;6.85;;;;;;;6.04;100.00;95958.19;5068649;28;20026;-63
2023/11/07 08:56:03;;;;;;;9.40;6.38;;;;;;;6.19;100.00;95958.88;5082721;28;20020;-64
2023/11/07 08:58:30;;;;;;;7.97;5.57;;;;;;;6.34;100.00;95956.16;5082744;28;20027;-63
2023/11/07 09:00:58;;;;;;;5.38;4.88;;;;;;;6.45;100.00;95941.34;5081649;28;20032;-64
2023/11/07 09:03:24;;;;;;;5.75;5.18;;;;;;;6.58;100.00;95949.16;5087383;28;20047;-64
2023/11/07 09:05:49;;;;;;;7.25;5.20;;;;;;;6.69;100.00;95952.75;5085460;28;20113;-64
2023/11/07 09:08:15;;;;;;;9.32;7.95;;;;;;;6.90;100.00;95950.38;5085141;28;20536;-63
2023/11/07 09:10:40;;;;;;;8.63;7.13;;;;;;;7.00;100.00;95958.38;5080745;28;20070;-64
2023/11/07 09:13:07;;;;;;;7.10;5.88;;;;;;;7.06;100.00;95955.31;5090363;28;20035;-63
2023/11/07 09:15:33;;;;;;;7.05;5.78;;;;;;;7.13;100.00;95974.84;5089803;28;20024;-64
2023/11/07 09:17:58;;;;;;;7.32;6.65;;;;;;;7.20;100.00;95977.84;5082893;28;20634;-64
2023/11/07 09:20:24;;;;;;;6.85;6.15;;;;;;;7.30;100.00;95988.47;5082394;28;20050;-63
2023/11/07 09:22:49;;;;;;;9.40;5.50;;;;;;;7.35;100.00;95996.81;5090412;28;20086;-63
2023/11/07 09:25:15;;;;;;;5.40;4.97;;;;;;;7.42;100.00;96005.06;5087248;28;20059;-63
2023/11/07 09:27:41;;;;;;;5.80;4.68;;;;;;;7.51;100.00;96008.75;5096744;28;20122;-63
2023/11/07 09:30:09;;;;;;;3.42;3.13;;;;;;;7.56;100.00;96031.06;5092648;28;20024;-63
2023/11/07 09:32:38;;;;;;;4.78;4.38;;;;;;;7.72;100.00;96041.22;5084814;28;20012;-64
2023/11/07 09:35:07;;;;;;;6.57;6.07;;;;;;;7.73;100.00;96057.75;5081862;28;20032;-63
2023/11/07 09:37:39;;;;;;;5.20;4.68;;;;;;;7.73;100.00;96065.63;5088994;28;20023;-64
2023/11/07 09:40:10;;;;;;;6.28;5.82;;;;;;;7.83;100.00;96077.09;5076766;28;20074;-63
2023/11/07 09:42:40;;;;;;;5.10;4.70;;;;;;;7.92;100.00;96085.22;5080724;28;20043;-63
2023/11/07 09:45:16;;;;;;;3.90;3.60;;;;;;;8.02;100.00;96084.41;5086530;28;20024;-64
2023/11/07 09:47:46;;;;;;;;;;;;;;;8.07;100.00;96101.56;5087762;28;20030;-64
2023/11/07 09:50:12;;;;;;;3.30;3.00;;;;;;;8.14;100.00;96123.78;5085087;28;19996;-64
2023/11/07 09:52:38;;;;;;;3.00;2.78;;;;;;;8.19;100.00;96132.13;5082139;28;20736;-63
2023/11/07 09:55:08;;;;;;;4.45;3.22;;;;;;;8.25;100.00;96144.78;5087557;28;20027;-64
2023/11/07 09:57:41;;;;;;;3.63;2.92;;;;;;;8.24;100.00;96163.25;5084310;28;20645;-63
2023/11/07 10:00:09;;;;;;;4.75;3.40;;;;;;;8.32;100.00;96169.59;5082655;28;20036;-64
2023/11/07 10:02:35;;;;;;;5.35;3.10;;;;;;;8.38;100.00;96172.72;5083975;28;20074;-64
2023/11/07 10:05:01;;;;;;;4.32;3.58;;;;;;;8.51;100.00;96168.25;5079838;28;20024;-63
2023/11/07 10:07:28;;;;;;;3.80;3.50;;;;;;;8.58;100.00;96174.69;5087269;28;20035;-64
2023/11/07 10:09:54;;;;;;;3.78;2.67;;;;;;;8.57;100.00;96177.41;5094123;28;20045;-64
2023/11/07 10:12:20;;;;;;;4.30;2.90;;;;;;;8.60;100.00;96188.53;5094597;28;20067;-64
2023/11/07 10:14:46;;;;;;;3.20;2.90;;;;;;;8.56;100.00;96201.97;5088988;28;20060;-64
2023/11/07 10:17:22;;;;;;;4.38;3.08;;;;;;;8.53;100.00;96203.06;5095101;28;20032;-64
2023/11/07 10:20:13;;;;;;;2.78;2.60;;;;;;;8.56;100.00;96205.47;5085189;28;20054;-64
2023/11/07 10:22:45;;;;;;;3.75;2.95;;;;;;;8.42;100.00;96203.00;5080319;28;20111;-64
2023/11/07 10:25:34;;;;;;;4.07;2.70;;;;;;;8.34;100.00;96205.38;5094039;28;20024;-64
2023/11/07 10:28:00;;;;;;;2.75;2.55;;;;;;;8.28;100.00;96202.25;5087715;28;20016;-64
2023/11/07 10:30:44;;;;;;;3.05;2.50;;;;;;;8.17;100.00;96213.53;5080407;28;20028;-64
2023/11/07 10:33:12;;;;;;;3.30;3.00;;;;;;;8.32;100.00;96213.34;5087832;28;20040;-64
2023/11/07 10:36:01;;;;;;;3.15;2.85;;;;;;;8.55;100.00;96214.28;5083075;28;20020;-64
2023/11/07 10:38:31;;;;;;;3.72;3.15;;;;;;;8.69;100.00;96212.38;5092313;28;20093;-64
2023/11/07 10:40:57;;;;;;;2.70;2.50;;;;;;;8.63;100.00;96204.97;5087055;28;20028;-64
2023/11/07 10:43:32;;;;;;;2.80;2.60;;;;;;;8.65;100.00;96205.69;5090447;28;20024;-64
2023/11/07 10:46:03;;;;;;;2.85;2.65;;;;;;;8.84;100.00;96198.09;5081762;28;20059;-64
2023/11/07 10:48:38;;;;;;;5.70;3.55;;;;;;;9.04;100.00;96200.94;5084569;28;20044;-64
2023/11/07 10:51:05;;;;;;;5.32;3.47;;;;;;;9.26;100.00;96194.00;5085793;28;20017;-64
2023/11/07 10:53:33;;;;;;;4.45;3.35;;;;;;;9.29;100.00;96185.88;5082737;28;20100;-64
2023/11/07 10:56:00;;;;;;;2.97;2.70;;;;;;;9.42;100.00;96186.59;5089284;28;20107;-64
2023/11/07 10:58:32;;;;;;;3.15;2.92;;;;;;;9.55;100.00;96188.22;5087101;27;20020;-64
2023/11/07 11:01:01;;;;;;;4.65;3.97;;;;;;;9.70;100.00;96188.78;5084876;28;20024;-64
2023/11/07 11:03:28;;;;;;;3.72;2.90;;;;;;;9.92;100.00;96190.50;5084750;28;20054;-64
2023/11/07 11:05:54;;;;;;;2.70;2.50;;;;;;;9.73;100.00;96186.75;5079746;28;20070;-64
2023/11/07 11:08:23;;;;;;;3.20;2.90;;;;;;;9.72;100.00;96185.06;5086801;28;20017;-64
2023/11/07 11:10:52;;;;;;;2.80;2.60;;;;;;;9.78;100.00;96178.47;5090364;28;20048;-64
2023/11/07 11:13:23;;;;;;;6.00;3.35;;;;;;;9.79;100.00;96181.94;5101136;28;20115;-64
2023/11/07 11:15:50;;;;;;;4.80;3.63;;;;;;;9.59;100.00;96168.59;5084268;28;20397;-64
2023/11/07 11:18:24;;;;;;;3.40;3.10;;;;;;;9.65;100.00;96172.53;5083396;28;20033;-64
2023/11/07 11:21:18;;;;;;;3.60;3.10;;;;;;;9.56;100.00;96166.22;5088353;28;20496;-63